logo tempoitalia

Diretta Meteo Sharm El Sheikhintl, Egittolunedì 31 agosto ore 08:00

Mappa
Sereno 30 °C Sereno 24 Ore: T.min 29 T.max 35
Ponente Nord Km/h 20.3 Punto di rugiada: 17 °C Umidità: 45% Visibilità: 10 Km
Il sole sorge alle: 06:20 Il sole tramonta alle: 19:05
31 Agosto 2026 08:00 tempo osservato: Sereno Sereno 30 45 1008 vento: Nord N 20.3
31 Agosto 2026 07:00 tempo osservato: Sereno Sereno 29 48 1008 vento: Nord N/NO 18.5
31 Agosto 2026 06:00 tempo osservato: Sereno Sereno 29 48 1008 vento: Nord N/NO 16.7
31 Agosto 2026 05:00 tempo osservato: Sereno Sereno 29 51 1008 vento: Nord N 25.9
31 Agosto 2026 04:00 tempo osservato: Sereno Sereno 30 48 1008 vento: Nord N/NO 25.9
31 Agosto 2026 03:00 tempo osservato: Sereno Sereno 30 48 1008 vento: Nord N/NO 27.8
31 Agosto 2026 02:00 tempo osservato: Sereno Sereno 31 37 1007 vento: Nord N 20.3
31 Agosto 2026 01:00 tempo osservato: Sereno Sereno 32 35 1007 vento: Nord N 16.7
31 Agosto 2026 00:00 tempo osservato: Sereno Sereno 32 35 1007 vento: Nord N 18.5
30 Agosto 2026 23:00 tempo osservato: Sereno Sereno 32 35 1006 vento: Nord N/NO 18.5
30 Agosto 2026 22:00 tempo osservato: Sereno Sereno 33 33 1006 vento: Nord N 16.7
30 Agosto 2026 21:00 tempo osservato: Sereno Sereno 33 33 1006 vento: Nord N/NO 16.7
30 Agosto 2026 20:00 tempo osservato: Sereno Sereno 33 38 1005 vento: Nord N 14.8
30 Agosto 2026 19:00 tempo osservato: Sereno Sereno 34 36 1005 vento: Nord N 11.1
30 Agosto 2026 18:00 tempo osservato: Sereno Sereno 34 36 1005 vento: Nord N 14.8
30 Agosto 2026 17:00 tempo osservato: Sereno Sereno 33 46 1006 vento: Nord N/NE 16.7
30 Agosto 2026 16:00 tempo osservato: Sereno Sereno 34 43 1006 vento: Nord N 14.8
30 Agosto 2026 15:00 tempo osservato: Sereno Sereno 35 39 1006 vento: Nord N/NE 14.8
30 Agosto 2026 14:00 tempo osservato: Sereno Sereno 33 46 1007 vento: Nord N 22.2
30 Agosto 2026 13:00 tempo osservato: Sereno Sereno 33 46 1007 vento: Nord N/NE 18.5
30 Agosto 2026 12:00 tempo osservato: Sereno Sereno 33 46 1007 vento: Nord N/NE 22.2
30 Agosto 2026 11:00 tempo osservato: Sereno Sereno 32 52 1007 vento: Nord N 24
30 Agosto 2026 10:00 tempo osservato: Sereno Sereno 31 55 1007 vento: Nord N 25.9
30 Agosto 2026 09:00 tempo osservato: Sereno Sereno 30 62 1007 vento: Nord N 27.8